sensor_id;sensor_type;location;lat;lon;timestamp;pressure;altitude;pressure_sealevel;temperature;humidity
26978;BME280;56314;48.088;11.642;2023-04-19T00:01:15;95823.72;;;7.83;97.47
26978;BME280;56314;48.088;11.642;2023-04-19T00:03:41;95819.19;;;7.87;97.54
26978;BME280;56314;48.088;11.642;2023-04-19T00:06:08;95817.56;;;7.84;97.53
26978;BME280;56314;48.088;11.642;2023-04-19T00:08:34;95814.13;;;7.84;97.60
26978;BME280;56314;48.088;11.642;2023-04-19T00:10:59;95806.94;;;7.88;97.31
26978;BME280;56314;48.088;11.642;2023-04-19T00:13:25;95808.91;;;7.84;97.58
26978;BME280;56314;48.088;11.642;2023-04-19T00:15:50;95802.16;;;7.80;97.85
26978;BME280;56314;48.088;11.642;2023-04-19T00:18:15;95803.72;;;7.82;97.98
26978;BME280;56314;48.088;11.642;2023-04-19T00:20:40;95800.41;;;7.80;98.52
26978;BME280;56314;48.088;11.642;2023-04-19T00:23:07;95804.59;;;7.83;98.49
26978;BME280;56314;48.088;11.642;2023-04-19T00:25:32;95799.72;;;7.77;98.25
26978;BME280;56314;48.088;11.642;2023-04-19T00:27:59;95800.75;;;7.74;98.77
26978;BME280;56314;48.088;11.642;2023-04-19T00:30:24;95796.66;;;7.84;98.02
26978;BME280;56314;48.088;11.642;2023-04-19T00:32:51;95795.44;;;7.76;98.10
26978;BME280;56314;48.088;11.642;2023-04-19T00:35:17;95799.81;;;7.75;98.03
26978;BME280;56314;48.088;11.642;2023-04-19T00:37:42;95794.38;;;7.64;98.52
26978;BME280;56314;48.088;11.642;2023-04-19T00:40:08;95791.41;;;7.55;98.71
26978;BME280;56314;48.088;11.642;2023-04-19T00:42:34;95794.00;;;7.55;99.16
26978;BME280;56314;48.088;11.642;2023-04-19T00:45:00;95799.25;;;7.55;99.04
26978;BME280;56314;48.088;11.642;2023-04-19T00:47:25;95792.22;;;7.56;98.68
26978;BME280;56314;48.088;11.642;2023-04-19T00:49:51;95786.50;;;7.49;99.03
26978;BME280;56314;48.088;11.642;2023-04-19T00:52:16;95781.22;;;7.51;99.26
26978;BME280;56314;48.088;11.642;2023-04-19T00:54:42;95783.81;;;7.51;99.04
26978;BME280;56314;48.088;11.642;2023-04-19T00:57:07;95778.94;;;7.45;99.47
26978;BME280;56314;48.088;11.642;2023-04-19T00:59:33;95779.88;;;7.44;100.00
26978;BME280;56314;48.088;11.642;2023-04-19T01:01:59;95774.47;;;7.47;99.98
26978;BME280;56314;48.088;11.642;2023-04-19T01:04:27;95776.16;;;7.48;100.00
26978;BME280;56314;48.088;11.642;2023-04-19T01:06:52;95778.41;;;7.54;100.00
26978;BME280;56314;48.088;11.642;2023-04-19T01:09:18;95775.78;;;7.54;100.00
26978;BME280;56314;48.088;11.642;2023-04-19T01:11:43;95776.66;;;7.54;99.45
26978;BME280;56314;48.088;11.642;2023-04-19T01:14:09;95780.19;;;7.53;99.45
26978;BME280;56314;48.088;11.642;2023-04-19T01:16:34;95769.06;;;7.50;99.39
26978;BME280;56314;48.088;11.642;2023-04-19T01:19:00;95768.97;;;7.51;99.88
26978;BME280;56314;48.088;11.642;2023-04-19T01:21:25;95768.03;;;7.52;99.22
26978;BME280;56314;48.088;11.642;2023-04-19T01:23:53;95760.84;;;7.56;99.37
26978;BME280;56314;48.088;11.642;2023-04-19T01:26:20;95760.03;;;7.55;99.03
26978;BME280;56314;48.088;11.642;2023-04-19T01:28:46;95757.13;;;7.46;98.88
26978;BME280;56314;48.088;11.642;2023-04-19T01:31:11;95755.53;;;7.43;99.64
26978;BME280;56314;48.088;11.642;2023-04-19T01:33:37;95751.13;;;7.44;99.96
26978;BME280;56314;48.088;11.642;2023-04-19T01:36:02;95762.16;;;7.49;99.70
26978;BME280;56314;48.088;11.642;2023-04-19T01:38:27;95755.31;;;7.46;99.54
26978;BME280;56314;48.088;11.642;2023-04-19T01:40:53;95751.78;;;7.47;99.94
26978;BME280;56314;48.088;11.642;2023-04-19T01:43:20;95750.19;;;7.45;100.00
26978;BME280;56314;48.088;11.642;2023-04-19T01:45:46;95748.25;;;7.48;100.00
26978;BME280;56314;48.088;11.642;2023-04-19T01:48:11;95747.34;;;7.64;99.73
26978;BME280;56314;48.088;11.642;2023-04-19T01:50:36;95747.97;;;7.53;100.00
26978;BME280;56314;48.088;11.642;2023-04-19T01:53:02;95747.50;;;7.46;100.00
26978;BME280;56314;48.088;11.642;2023-04-19T01:55:27;95745.63;;;7.48;100.00
26978;BME280;56314;48.088;11.642;2023-04-19T01:57:53;95744.16;;;7.44;100.00
26978;BME280;56314;48.088;11.642;2023-04-19T02:00:19;95753.69;;;7.45;100.00
26978;BME280;56314;48.088;11.642;2023-04-19T02:02:44;95739.84;;;7.43;100.00
26978;BME280;56314;48.088;11.642;2023-04-19T02:05:10;95744.22;;;7.43;100.00
26978;BME280;56314;48.088;11.642;2023-04-19T02:07:36;95739.84;;;7.43;100.00
26978;BME280;56314;48.088;11.642;2023-04-19T02:10:04;95734.97;;;7.37;100.00
26978;BME280;56314;48.088;11.642;2023-04-19T02:12:30;95734.41;;;7.32;100.00
26978;BME280;56314;48.088;11.642;2023-04-19T02:14:59;95732.16;;;7.26;100.00
26978;BME280;56314;48.088;11.642;2023-04-19T02:17:27;95734.22;;;7.35;100.00
26978;BME280;56314;48.088;11.642;2023-04-19T02:19:53;95726.66;;;7.30;100.00
26978;BME280;56314;48.088;11.642;2023-04-19T02:22:18;95724.81;;;7.32;100.00
26978;BME280;56314;48.088;11.642;2023-04-19T02:24:44;95724.16;;;7.29;100.00
26978;BME280;56314;48.088;11.642;2023-04-19T02:27:10;95725.06;;;7.28;100.00
26978;BME280;56314;48.088;11.642;2023-04-19T02:29:36;95719.94;;;7.26;100.00
26978;BME280;56314;48.088;11.642;2023-04-19T02:32:02;95724.59;;;7.21;100.00
26978;BME280;56314;48.088;11.642;2023-04-19T02:34:30;95715.72;;;7.23;100.00
26978;BME280;56314;48.088;11.642;2023-04-19T02:36:56;95711.81;;;7.16;100.00
26978;BME280;56314;48.088;11.642;2023-04-19T02:39:21;95711.63;;;7.19;100.00
26978;BME280;56314;48.088;11.642;2023-04-19T02:41:47;95712.16;;;7.10;100.00
26978;BME280;56314;48.088;11.642;2023-04-19T02:44:12;95708.81;;;7.08;100.00
26978;BME280;56314;48.088;11.642;2023-04-19T02:46:38;95706.19;;;7.08;100.00
26978;BME280;56314;48.088;11.642;2023-04-19T02:49:03;95702.56;;;7.11;100.00
26978;BME280;56314;48.088;11.642;2023-04-19T02:51:31;95706.91;;;7.10;100.00
26978;BME280;56314;48.088;11.642;2023-04-19T02:53:56;95702.06;;;7.04;100.00
26978;BME280;56314;48.088;11.642;2023-04-19T02:56:22;95697.88;;;7.01;100.00
26978;BME280;56314;48.088;11.642;2023-04-19T02:58:47;95702.72;;;7.07;100.00
26978;BME280;56314;48.088;11.642;2023-04-19T03:01:12;95701.16;;;7.05;100.00
26978;BME280;56314;48.088;11.642;2023-04-19T03:03:38;95699.19;;;7.08;100.00
26978;BME280;56314;48.088;11.642;2023-04-19T03:06:06;95692.38;;;7.06;100.00
26978;BME280;56314;48.088;11.642;2023-04-19T03:08:32;95694.91;;;7.07;100.00
26978;BME280;56314;48.088;11.642;2023-04-19T03:10:57;95696.47;;;7.10;100.00
26978;BME280;56314;48.088;11.642;2023-04-19T03:13:22;95698.63;;;7.03;100.00
26978;BME280;56314;48.088;11.642;2023-04-19T03:15:49;95692.94;;;7.11;100.00
26978;BME280;56314;48.088;11.642;2023-04-19T03:18:14;95691.72;;;7.02;100.00
26978;BME280;56314;48.088;11.642;2023-04-19T03:20:41;95688.38;;;7.00;100.00
26978;BME280;56314;48.088;11.642;2023-04-19T03:23:06;95686.69;;;6.99;100.00
26978;BME280;56314;48.088;11.642;2023-04-19T03:25:32;95683.91;;;7.02;100.00
26978;BME280;56314;48.088;11.642;2023-04-19T03:27:57;95680.69;;;6.97;100.00
26978;BME280;56314;48.088;11.642;2023-04-19T03:30:23;95675.59;;;6.96;100.00
26978;BME280;56314;48.088;11.642;2023-04-19T03:32:48;95670.91;;;7.01;100.00
26978;BME280;56314;48.088;11.642;2023-04-19T03:35:13;95668.94;;;7.04;100.00
26978;BME280;56314;48.088;11.642;2023-04-19T03:37:39;95670.09;;;7.00;100.00
26978;BME280;56314;48.088;11.642;2023-04-19T03:40:05;95669.22;;;7.00;100.00
26978;BME280;56314;48.088;11.642;2023-04-19T03:42:30;95667.53;;;6.99;100.00
26978;BME280;56314;48.088;11.642;2023-04-19T03:44:58;95672.03;;;6.97;100.00
26978;BME280;56314;48.088;11.642;2023-04-19T03:47:24;95671.09;;;6.98;100.00
26978;BME280;56314;48.088;11.642;2023-04-19T03:49:49;95669.59;;;6.93;100.00
26978;BME280;56314;48.088;11.642;2023-04-19T03:52:15;95666.81;;;6.97;100.00
26978;BME280;56314;48.088;11.642;2023-04-19T03:54:40;95659.91;;;6.96;100.00
26978;BME280;56314;48.088;11.642;2023-04-19T03:57:06;95656.72;;;6.90;100.00
26978;BME280;56314;48.088;11.642;2023-04-19T03:59:31;95666.88;;;6.95;100.00
26978;BME280;56314;48.088;11.642;2023-04-19T04:01:56;95667.81;;;6.94;100.00
26978;BME280;56314;48.088;11.642;2023-04-19T04:04:22;95663.91;;;6.87;100.00
26978;BME280;56314;48.088;11.642;2023-04-19T04:06:47;95664.72;;;6.87;100.00
26978;BME280;56314;48.088;11.642;2023-04-19T04:09:15;95664.66;;;6.89;100.00
26978;BME280;56314;48.088;11.642;2023-04-19T04:11:40;95667.91;;;6.92;100.00
26978;BME280;56314;48.088;11.642;2023-04-19T04:14:06;95669.50;;;6.95;100.00
26978;BME280;56314;48.088;11.642;2023-04-19T04:16:31;95667.25;;;6.89;100.00
26978;BME280;56314;48.088;11.642;2023-04-19T04:18:56;95671.81;;;6.85;100.00
26978;BME280;56314;48.088;11.642;2023-04-19T04:21:22;95669.13;;;6.87;100.00
26978;BME280;56314;48.088;11.642;2023-04-19T04:23:48;95673.31;;;6.89;100.00
26978;BME280;56314;48.088;11.642;2023-04-19T04:26:14;95667.81;;;6.94;100.00
26978;BME280;56314;48.088;11.642;2023-04-19T04:28:39;95672.38;;;6.90;100.00
26978;BME280;56314;48.088;11.642;2023-04-19T04:31:04;95669.94;;;6.87;100.00
26978;BME280;56314;48.088;11.642;2023-04-19T04:33:30;95675.25;;;6.86;100.00
26978;BME280;56314;48.088;11.642;2023-04-19T04:35:55;95674.59;;;6.82;100.00
26978;BME280;56314;48.088;11.642;2023-04-19T04:38:22;95675.44;;;6.83;100.00
26978;BME280;56314;48.088;11.642;2023-04-19T04:40:51;95670.88;;;6.86;100.00
26978;BME280;56314;48.088;11.642;2023-04-19T04:43:18;95670.03;;;6.86;100.00
26978;BME280;56314;48.088;11.642;2023-04-19T04:45:45;95676.84;;;6.88;100.00
26978;BME280;56314;48.088;11.642;2023-04-19T04:48:10;95672.75;;;6.84;100.00
26978;BME280;56314;48.088;11.642;2023-04-19T04:50:36;95671.72;;;6.87;100.00
26978;BME280;56314;48.088;11.642;2023-04-19T04:53:01;95668.19;;;6.88;100.00
26978;BME280;56314;48.088;11.642;2023-04-19T04:55:27;95670.81;;;6.88;100.00
26978;BME280;56314;48.088;11.642;2023-04-19T04:57:52;95669.28;;;6.84;100.00
26978;BME280;56314;48.088;11.642;2023-04-19T05:00:18;95665.75;;;6.85;100.00
26978;BME280;56314;48.088;11.642;2023-04-19T05:02:43;95674.66;;;6.81;100.00
26978;BME280;56314;48.088;11.642;2023-04-19T05:05:08;95666.69;;;6.84;100.00
26978;BME280;56314;48.088;11.642;2023-04-19T05:07:35;95666.03;;;6.80;100.00
26978;BME280;56314;48.088;11.642;2023-04-19T05:10:00;95662.47;;;6.81;100.00
26978;BME280;56314;48.088;11.642;2023-04-19T05:12:26;95657.09;;;6.84;100.00
26978;BME280;56314;48.088;11.642;2023-04-19T05:14:51;95665.84;;;6.83;100.00
26978;BME280;56314;48.088;11.642;2023-04-19T05:17:17;95655.91;;;6.90;100.00
26978;BME280;56314;48.088;11.642;2023-04-19T05:19:42;95656.53;;;6.93;100.00
26978;BME280;56314;48.088;11.642;2023-04-19T05:22:08;95662.09;;;6.87;100.00
26978;BME280;56314;48.088;11.642;2023-04-19T05:24:33;95662.97;;;6.88;100.00
26978;BME280;56314;48.088;11.642;2023-04-19T05:26:58;95660.44;;;6.86;100.00
26978;BME280;56314;48.088;11.642;2023-04-19T05:29:24;95657.75;;;6.88;100.00
26978;BME280;56314;48.088;11.642;2023-04-19T05:31:49;95663.78;;;6.88;100.00
26978;BME280;56314;48.088;11.642;2023-04-19T05:34:14;95657.47;;;6.92;100.00
26978;BME280;56314;48.088;11.642;2023-04-19T05:36:40;95660.75;;;6.96;100.00
26978;BME280;56314;48.088;11.642;2023-04-19T05:39:05;95655.41;;;6.98;100.00
26978;BME280;56314;48.088;11.642;2023-04-19T05:41:30;95657.03;;;7.00;100.00
26978;BME280;56314;48.088;11.642;2023-04-19T05:43:56;95657.03;;;7.00;100.00
26978;BME280;56314;48.088;11.642;2023-04-19T05:46:21;95657.97;;;6.99;100.00
26978;BME280;56314;48.088;11.642;2023-04-19T05:48:46;95663.72;;;7.04;100.00
26978;BME280;56314;48.088;11.642;2023-04-19T05:51:12;95656.09;;;7.16;100.00
26978;BME280;56314;48.088;11.642;2023-04-19T05:53:38;95662.81;;;7.05;100.00
26978;BME280;56314;48.088;11.642;2023-04-19T05:56:04;95659.72;;;6.99;100.00
26978;BME280;56314;48.088;11.642;2023-04-19T05:58:29;95658.88;;;6.98;100.00
26978;BME280;56314;48.088;11.642;2023-04-19T06:00:54;95659.72;;;6.99;100.00
26978;BME280;56314;48.088;11.642;2023-04-19T06:03:20;95662.16;;;7.02;100.00
26978;BME280;56314;48.088;11.642;2023-04-19T06:05:48;95661.06;;;7.06;100.00
26978;BME280;56314;48.088;11.642;2023-04-19T06:08:13;95656.66;;;7.06;100.00
26978;BME280;56314;48.088;11.642;2023-04-19T06:10:40;95653.03;;;7.09;100.00
26978;BME280;56314;48.088;11.642;2023-04-19T06:13:08;95658.00;;;7.14;100.00
26978;BME280;56314;48.088;11.642;2023-04-19T06:15:33;95649.13;;;7.16;100.00
26978;BME280;56314;48.088;11.642;2023-04-19T06:17:58;95658.66;;;7.17;100.00
26978;BME280;56314;48.088;11.642;2023-04-19T06:20:24;95664.22;;;7.11;100.00
26978;BME280;56314;48.088;11.642;2023-04-19T06:22:49;95657.25;;;7.12;100.00
26978;BME280;56314;48.088;11.642;2023-04-19T06:25:15;95659.00;;;7.11;100.00
26978;BME280;56314;48.088;11.642;2023-04-19T06:27:40;95656.59;;;7.08;100.00
26978;BME280;56314;48.088;11.642;2023-04-19T06:30:06;95654.69;;;7.10;100.00
26978;BME280;56314;48.088;11.642;2023-04-19T06:32:32;95653.75;;;7.11;100.00
26978;BME280;56314;48.088;11.642;2023-04-19T06:34:57;95651.25;;;7.09;100.00
26978;BME280;56314;48.088;11.642;2023-04-19T06:37:22;95652.00;;;7.12;100.00
26978;BME280;56314;48.088;11.642;2023-04-19T06:39:50;95658.16;;;7.11;100.00
26978;BME280;56314;48.088;11.642;2023-04-19T06:42:16;95648.75;;;7.08;100.00
26978;BME280;56314;48.088;11.642;2023-04-19T06:44:43;95648.38;;;7.14;100.00
26978;BME280;56314;48.088;11.642;2023-04-19T06:47:09;95652.28;;;7.07;100.00
26978;BME280;56314;48.088;11.642;2023-04-19T06:49:36;95653.03;;;7.09;100.00
26978;BME280;56314;48.088;11.642;2023-04-19T06:52:02;95655.66;;;7.09;100.00
26978;BME280;56314;48.088;11.642;2023-04-19T06:54:28;95639.78;;;7.12;100.00
26978;BME280;56314;48.088;11.642;2023-04-19T06:56:54;95652.00;;;7.12;100.00
26978;BME280;56314;48.088;11.642;2023-04-19T06:59:20;95641.84;;;7.07;100.00
26978;BME280;56314;48.088;11.642;2023-04-19T07:01:46;95646.84;;;7.10;100.00
26978;BME280;56314;48.088;11.642;2023-04-19T07:04:12;95645.84;;;7.13;100.00
26978;BME280;56314;48.088;11.642;2023-04-19T07:06:38;95640.72;;;7.11;100.00
26978;BME280;56314;48.088;11.642;2023-04-19T07:09:05;95641.00;;;7.21;100.00
26978;BME280;56314;48.088;11.642;2023-04-19T07:11:31;95643.34;;;7.26;100.00
26978;BME280;56314;48.088;11.642;2023-04-19T07:13:56;95639.31;;;7.20;100.00
26978;BME280;56314;48.088;11.642;2023-04-19T07:16:22;95648.03;;;7.20;100.00
26978;BME280;56314;48.088;11.642;2023-04-19T07:18:47;95639.25;;;7.21;100.00
26978;BME280;56314;48.088;11.642;2023-04-19T07:21:13;95636.66;;;7.21;100.00
26978;BME280;56314;48.088;11.642;2023-04-19T07:23:39;95639.06;;;7.24;100.00
26978;BME280;56314;48.088;11.642;2023-04-19T07:26:04;95638.41;;;7.21;100.00
26978;BME280;56314;48.088;11.642;2023-04-19T07:28:30;95638.22;;;7.24;100.00
26978;BME280;56314;48.088;11.642;2023-04-19T07:30:56;95639.69;;;7.28;100.00
26978;BME280;56314;48.088;11.642;2023-04-19T07:33:22;95635.22;;;7.30;100.00
26978;BME280;56314;48.088;11.642;2023-04-19T07:35:49;95631.84;;;7.28;100.00
26978;BME280;56314;48.088;11.642;2023-04-19T07:38:15;95635.16;;;7.32;100.00
26978;BME280;56314;48.088;11.642;2023-04-19T07:40:41;95627.50;;;7.43;100.00
26978;BME280;56314;48.088;11.642;2023-04-19T07:43:06;95628.44;;;7.42;100.00
26978;BME280;56314;48.088;11.642;2023-04-19T07:45:31;95622.16;;;7.45;100.00
26978;BME280;56314;48.088;11.642;2023-04-19T07:47:57;95626.06;;;7.52;100.00
26978;BME280;56314;48.088;11.642;2023-04-19T07:50:24;95628.50;;;7.55;100.00
26978;BME280;56314;48.088;11.642;2023-04-19T07:52:50;95623.56;;;7.50;100.00
26978;BME280;56314;48.088;11.642;2023-04-19T07:55:18;95621.53;;;7.55;100.00
26978;BME280;56314;48.088;11.642;2023-04-19T07:57:44;95620.38;;;7.60;100.00
26978;BME280;56314;48.088;11.642;2023-04-19T08:00:16;95618.88;;;7.70;100.00
26978;BME280;56314;48.088;11.642;2023-04-19T08:02:44;95618.78;;;7.86;100.00
26978;BME280;56314;48.088;11.642;2023-04-19T08:05:11;95611.13;;;8.10;100.00
26978;BME280;56314;48.088;11.642;2023-04-19T08:07:36;95609.00;;;8.30;100.00
26978;BME280;56314;48.088;11.642;2023-04-19T08:10:06;95605.41;;;8.45;100.00
26978;BME280;56314;48.088;11.642;2023-04-19T08:12:34;95611.91;;;8.80;100.00
26978;BME280;56314;48.088;11.642;2023-04-19T08:15:01;95607.00;;;8.88;99.32
26978;BME280;56314;48.088;11.642;2023-04-19T08:17:26;95604.38;;;8.88;98.50
26978;BME280;56314;48.088;11.642;2023-04-19T08:19:51;95606.06;;;8.89;98.04
26978;BME280;56314;48.088;11.642;2023-04-19T08:22:18;95606.56;;;8.82;95.53
26978;BME280;56314;48.088;11.642;2023-04-19T08:24:43;95607.09;;;8.87;96.37
26978;BME280;56314;48.088;11.642;2023-04-19T08:27:10;95608.69;;;9.02;96.37
26978;BME280;56314;48.088;11.642;2023-04-19T08:29:35;95597.59;;;9.12;96.45
26978;BME280;56314;48.088;11.642;2023-04-19T08:32:01;95605.97;;;9.17;96.25
26978;BME280;56314;48.088;11.642;2023-04-19T08:34:27;95599.25;;;9.26;94.78
26978;BME280;56314;48.088;11.642;2023-04-19T08:36:52;95602.72;;;9.26;93.90
26978;BME280;56314;48.088;11.642;2023-04-19T08:39:18;95598.94;;;9.43;92.93
26978;BME280;56314;48.088;11.642;2023-04-19T08:41:43;95592.72;;;9.57;93.53
26978;BME280;56314;48.088;11.642;2023-04-19T08:44:12;95583.06;;;9.58;91.71
26978;BME280;56314;48.088;11.642;2023-04-19T08:46:37;95588.91;;;9.74;89.19
26978;BME280;56314;48.088;11.642;2023-04-19T08:49:07;95583.13;;;9.82;90.46
26978;BME280;56314;48.088;11.642;2023-04-19T08:51:33;95582.28;;;9.81;87.87
26978;BME280;56314;48.088;11.642;2023-04-19T08:54:00;95584.28;;;9.91;88.14
26978;BME280;56314;48.088;11.642;2023-04-19T08:56:28;95580.66;;;10.05;87.27
26978;BME280;56314;48.088;11.642;2023-04-19T08:58:54;95570.75;;;10.08;88.14
26978;BME280;56314;48.088;11.642;2023-04-19T09:01:20;95564.97;;;10.16;86.90
26978;BME280;56314;48.088;11.642;2023-04-19T09:03:46;95559.09;;;10.37;86.16
26978;BME280;56314;48.088;11.642;2023-04-19T09:06:11;95566.13;;;10.36;84.01
26978;BME280;56314;48.088;11.642;2023-04-19T09:08:38;95567.88;;;10.49;84.58
26978;BME280;56314;48.088;11.642;2023-04-19T09:11:03;95559.09;;;10.37;84.70
26978;BME280;56314;48.088;11.642;2023-04-19T09:13:30;95556.66;;;10.22;85.17
26978;BME280;56314;48.088;11.642;2023-04-19T09:15:56;95557.31;;;10.13;84.77
26978;BME280;56314;48.088;11.642;2023-04-19T09:18:22;95554.63;;;10.26;84.70
26978;BME280;56314;48.088;11.642;2023-04-19T09:20:51;95550.38;;;10.12;86.08
26978;BME280;56314;48.088;11.642;2023-04-19T09:23:24;95548.94;;;10.08;85.00
26978;BME280;56314;48.088;11.642;2023-04-19T09:28:22;95548.09;;;9.83;87.09
26978;BME280;56314;48.088;11.642;2023-04-19T09:30:48;95548.84;;;9.72;86.72
26978;BME280;56314;48.088;11.642;2023-04-19T09:33:31;95545.94;;;9.64;87.67
26978;BME280;56314;48.088;11.642;2023-04-19T09:35:58;95545.34;;;9.60;88.72
26978;BME280;56314;48.088;11.642;2023-04-19T09:38:23;95541.38;;;9.54;89.28
26978;BME280;56314;48.088;11.642;2023-04-19T09:40:48;95543.94;;;9.67;88.63
26978;BME280;56314;48.088;11.642;2023-04-19T09:43:22;95530.91;;;10.03;87.62
26978;BME280;56314;48.088;11.642;2023-04-19T09:45:48;95532.06;;;10.47;85.34
26978;BME280;56314;48.088;11.642;2023-04-19T09:48:14;95517.25;;;10.93;83.09
26978;BME280;56314;48.088;11.642;2023-04-19T09:50:54;95521.44;;;11.30;80.74
26978;BME280;56314;48.088;11.642;2023-04-19T09:53:21;95507.66;;;11.72;77.32
26978;BME280;56314;48.088;11.642;2023-04-19T09:55:49;95499.25;;;12.55;72.22
26978;BME280;56314;48.088;11.642;2023-04-19T09:58:15;95494.50;;;13.32;72.03
26978;BME280;56314;48.088;11.642;2023-04-19T10:00:42;95491.25;;;13.90;67.52
26978;BME280;56314;48.088;11.642;2023-04-19T10:03:09;95484.03;;;14.22;65.00
26978;BME280;56314;48.088;11.642;2023-04-19T10:05:38;95479.59;;;14.12;65.27
26978;BME280;56314;48.088;11.642;2023-04-19T10:08:09;95480.72;;;14.29;62.62
26978;BME280;56314;48.088;11.642;2023-04-19T10:10:35;95474.16;;;13.94;63.99
26978;BME280;56314;48.088;11.642;2023-04-19T10:13:06;95479.91;;;13.59;64.08
26978;BME280;56314;48.088;11.642;2023-04-19T10:15:33;95481.78;;;13.37;64.82
26978;BME280;56314;48.088;11.642;2023-04-19T10:18:03;95473.28;;;12.92;68.07
26978;BME280;56314;48.088;11.642;2023-04-19T10:20:45;95477.38;;;12.64;68.74
26978;BME280;56314;48.088;11.642;2023-04-19T10:23:13;95476.22;;;12.36;68.97
26978;BME280;56314;48.088;11.642;2023-04-19T10:25:38;95472.91;;;12.55;68.90
26978;BME280;56314;48.088;11.642;2023-04-19T10:28:04;95473.09;;;12.63;69.10
26978;BME280;56314;48.088;11.642;2023-04-19T10:30:29;95471.44;;;12.62;68.83
26978;BME280;56314;48.088;11.642;2023-04-19T10:32:59;95463.06;;;12.57;68.61
26978;BME280;56314;48.088;11.642;2023-04-19T10:35:32;95465.13;;;12.53;68.15
26978;BME280;56314;48.088;11.642;2023-04-19T10:43:33;95457.19;;;12.11;68.05
26978;BME280;56314;48.088;11.642;2023-04-19T10:48:33;95455.41;;;12.11;67.52
26978;BME280;56314;48.088;11.642;2023-04-19T10:56:17;95441.47;;;11.99;68.95
26978;BME280;56314;48.088;11.642;2023-04-19T11:04:10;95440.94;;;11.06;74.70
26978;BME280;56314;48.088;11.642;2023-04-19T11:06:59;95430.91;;;10.77;77.27
26978;BME280;56314;48.088;11.642;2023-04-19T11:12:04;95434.72;;;10.15;85.20
26978;BME280;56314;48.088;11.642;2023-04-19T11:14:44;95438.22;;;9.91;89.21
26978;BME280;56314;48.088;11.642;2023-04-19T11:17:18;95441.72;;;9.79;94.93
26978;BME280;56314;48.088;11.642;2023-04-19T11:22:16;95426.25;;;9.38;96.81
26978;BME280;56314;48.088;11.642;2023-04-19T11:24:45;95432.16;;;9.29;98.55
26978;BME280;56314;48.088;11.642;2023-04-19T11:27:12;95432.28;;;9.28;99.12
26978;BME280;56314;48.088;11.642;2023-04-19T11:29:37;95422.97;;;9.23;100.00
26978;BME280;56314;48.088;11.642;2023-04-19T11:32:03;95421.19;;;9.24;99.49
26978;BME280;56314;48.088;11.642;2023-04-19T11:34:29;95419.75;;;9.20;99.60
26978;BME280;56314;48.088;11.642;2023-04-19T11:36:54;95418.19;;;9.17;99.52
26978;BME280;56314;48.088;11.642;2023-04-19T11:39:19;95422.81;;;9.14;99.40
26978;BME280;56314;48.088;11.642;2023-04-19T11:41:45;95411.47;;;9.13;98.77
26978;BME280;56314;48.088;11.642;2023-04-19T11:44:17;95416.72;;;9.13;99.19
26978;BME280;56314;48.088;11.642;2023-04-19T11:46:58;95414.22;;;9.12;100.00
26978;BME280;56314;48.088;11.642;2023-04-19T11:49:31;95415.31;;;9.20;100.00
26978;BME280;56314;48.088;11.642;2023-04-19T11:51:59;95415.03;;;9.12;100.00
26978;BME280;56314;48.088;11.642;2023-04-19T11:54:24;95407.97;;;9.01;100.00
26978;BME280;56314;48.088;11.642;2023-04-19T11:57:04;95410.59;;;8.88;97.93
26978;BME280;56314;48.088;11.642;2023-04-19T11:59:31;95411.97;;;8.81;96.57
26978;BME280;56314;48.088;11.642;2023-04-19T12:02:12;95421.41;;;8.71;97.46
26978;BME280;56314;48.088;11.642;2023-04-19T12:04:38;95419.22;;;8.52;97.68
26978;BME280;56314;48.088;11.642;2023-04-19T12:07:04;95414.19;;;8.49;99.79
26978;BME280;56314;48.088;11.642;2023-04-19T12:09:35;95412.72;;;8.57;100.00
26978;BME280;56314;48.088;11.642;2023-04-19T12:12:03;95419.13;;;8.53;100.00
26978;BME280;56314;48.088;11.642;2023-04-19T12:14:30;95413.88;;;8.53;100.00
26978;BME280;56314;48.088;11.642;2023-04-19T12:19:50;95409.13;;;8.45;100.00
26978;BME280;56314;48.088;11.642;2023-04-19T12:22:18;95408.09;;;8.35;100.00
26978;BME280;56314;48.088;11.642;2023-04-19T12:24:44;95406.09;;;8.39;100.00
26978;BME280;56314;48.088;11.642;2023-04-19T12:27:10;95404.41;;;8.38;100.00
26978;BME280;56314;48.088;11.642;2023-04-19T12:29:35;95412.28;;;8.38;100.00
26978;BME280;56314;48.088;11.642;2023-04-19T12:32:01;95406.44;;;8.47;100.00
26978;BME280;56314;48.088;11.642;2023-04-19T12:34:27;95412.41;;;8.49;100.00
26978;BME280;56314;48.088;11.642;2023-04-19T12:36:53;95410.81;;;8.46;100.00
26978;BME280;56314;48.088;11.642;2023-04-19T12:39:18;95398.19;;;8.53;100.00
26978;BME280;56314;48.088;11.642;2023-04-19T12:41:43;95406.31;;;8.61;100.00
26978;BME280;56314;48.088;11.642;2023-04-19T12:44:09;95399.03;;;8.54;100.00
26978;BME280;56314;48.088;11.642;2023-04-19T12:46:35;95401.94;;;8.23;100.00
26978;BME280;56314;48.088;11.642;2023-04-19T12:49:00;95397.22;;;8.15;100.00
26978;BME280;56314;48.088;11.642;2023-04-19T12:51:26;95393.75;;;8.15;100.00
26978;BME280;56314;48.088;11.642;2023-04-19T12:53:52;95404.13;;;8.16;100.00
26978;BME280;56314;48.088;11.642;2023-04-19T12:56:18;95395.63;;;8.00;99.90
26978;BME280;56314;48.088;11.642;2023-04-19T12:58:43;95401.84;;;7.84;100.00
26978;BME280;56314;48.088;11.642;2023-04-19T13:01:09;95398.41;;;7.84;100.00
26978;BME280;56314;48.088;11.642;2023-04-19T13:03:35;95406.13;;;7.73;100.00
26978;BME280;56314;48.088;11.642;2023-04-19T13:06:01;95404.53;;;7.70;100.00
26978;BME280;56314;48.088;11.642;2023-04-19T13:08:26;95402.34;;;7.64;100.00
26978;BME280;56314;48.088;11.642;2023-04-19T13:10:54;95404.63;;;7.55;100.00
26978;BME280;56314;48.088;11.642;2023-04-19T13:13:20;95388.41;;;7.50;100.00
26978;BME280;56314;48.088;11.642;2023-04-19T13:15:45;95397.81;;;7.53;100.00
26978;BME280;56314;48.088;11.642;2023-04-19T13:18:10;95387.28;;;7.54;100.00